Time;durP1;ratioP1;P1;durP2;ratioP2;P2;SDS_P1;SDS_P2;PMS_P1;PMS_P2;Temp;Humidity;BMP_temperature;BMP_pressure;BME280_temperature;BME280_humidity;BME280_pressure;Samples;Min_cycle;Max_cycle;Signal;HPM_P1;HPM_P2
2022/07/05 00:02:06;;;;;;;0.40;0.40;;;;;;;27.94;49.36;99389.25;5088778;28;20420;-72
2022/07/05 00:04:32;;;;;;;0.60;0.47;;;;;;;27.93;49.37;99390.50;5108546;28;20044;-72
2022/07/05 00:09:41;;;;;;;0.50;0.45;;;;;;;27.91;49.47;99404.16;5098661;28;20055;-73
2022/07/05 00:12:07;;;;;;;0.63;0.52;;;;;;;27.93;49.15;99398.94;5109311;28;20043;-72
2022/07/05 00:14:33;;;;;;;0.80;0.60;;;;;;;27.91;49.33;99387.28;5087537;28;20049;-72
2022/07/05 00:16:58;;;;;;;0.38;0.38;;;;;;;27.92;49.01;99390.88;5109798;28;20061;-71
2022/07/05 00:19:24;;;;;;;0.40;0.40;;;;;;;27.90;49.36;99396.94;5085619;28;20192;-72
2022/07/05 00:21:49;;;;;;;0.68;0.47;;;;;;;27.91;49.47;99395.72;5107031;28;20047;-72
2022/07/05 00:24:15;;;;;;;0.65;0.47;;;;;;;27.91;49.42;99395.72;5100159;28;20043;-72
2022/07/05 00:26:40;;;;;;;0.50;0.50;;;;;;;27.91;49.49;99398.53;5105242;28;20051;-71
2022/07/05 00:29:06;;;;;;;0.93;0.60;;;;;;;27.90;49.20;99401.78;5107130;28;20511;-71
2022/07/05 00:31:32;;;;;;;0.88;0.60;;;;;;;27.92;49.25;99400.13;5098793;28;20052;-72
2022/07/05 00:33:57;;;;;;;0.93;0.57;;;;;;;27.91;49.17;99401.34;5091234;28;20044;-72
2022/07/05 00:36:22;;;;;;;0.52;0.52;;;;;;;27.92;49.07;99402.13;5106731;28;20062;-72
2022/07/05 00:38:51;;;;;;;0.57;0.47;;;;;;;27.95;49.15;99401.31;5107769;28;20036;-72
2022/07/05 00:41:17;;;;;;;0.40;0.40;;;;;;;27.92;49.14;99402.13;5089516;28;20131;-72
2022/07/05 00:43:57;;;;;;;0.50;0.40;;;;;;;27.91;49.14;99400.56;5108257;28;20146;-72
2022/07/05 00:46:23;;;;;;;0.43;0.43;;;;;;;27.89;49.11;99400.97;5100891;28;20098;-72
2022/07/05 00:48:49;;;;;;;0.55;0.47;;;;;;;27.88;49.22;99399.41;5106028;28;20043;-71
2022/07/05 00:51:15;;;;;;;0.65;0.40;;;;;;;27.90;49.14;99404.59;5107688;28;20063;-71
2022/07/05 00:53:42;;;;;;;0.75;0.60;;;;;;;27.90;49.00;99407.41;5109220;28;20047;-71
2022/07/05 00:56:07;;;;;;;0.50;0.50;;;;;;;27.89;48.94;99392.53;5107010;28;20046;-72
2022/07/05 00:58:33;;;;;;;0.55;0.45;;;;;;;27.88;49.13;99398.59;5102746;28;20134;-72
2022/07/05 01:01:03;;;;;;;0.70;0.57;;;;;;;27.88;49.09;99396.59;5107679;28;20144;-72
2022/07/05 01:03:28;;;;;;;0.65;0.52;;;;;;;27.87;49.02;99399.81;5108907;28;20047;-68
2022/07/05 01:05:55;;;;;;;0.40;0.40;;;;;;;27.91;48.92;99400.56;5094567;28;20052;-68
2022/07/05 01:08:23;;;;;;;0.45;0.40;;;;;;;27.90;48.94;99396.16;5078244;28;20033;-69
2022/07/05 01:10:50;;;;;;;0.57;0.50;;;;;;;27.88;48.80;99395.78;5107554;28;20423;-68
2022/07/05 01:13:16;;;;;;;0.50;0.50;;;;;;;27.89;49.07;99405.81;5104946;28;20035;-69
2022/07/05 01:15:42;;;;;;;0.43;0.43;;;;;;;27.89;48.90;99403.78;5082320;28;20415;-68
2022/07/05 01:18:08;;;;;;;0.80;0.60;;;;;;;27.86;48.92;99406.63;5107256;28;20036;-68
2022/07/05 01:20:34;;;;;;;0.38;0.38;;;;;;;27.88;48.69;99409.84;5108895;28;20511;-68
2022/07/05 01:23:02;;;;;;;0.70;0.57;;;;;;;27.86;48.79;99404.66;5098851;28;20052;-68
2022/07/05 01:25:29;;;;;;;0.40;0.40;;;;;;;27.87;48.83;99411.88;5101988;28;20050;-69
2022/07/05 01:27:56;;;;;;;0.55;0.45;;;;;;;27.88;48.61;99404.22;5094877;28;20044;-69
2022/07/05 01:30:22;;;;;;;0.50;0.40;;;;;;;27.87;48.73;99400.63;5097022;28;20126;-69
2022/07/05 01:32:48;;;;;;;0.60;0.50;;;;;;;27.87;48.81;99409.06;5108240;28;20047;-69
2022/07/05 01:35:20;;;;;;;0.45;0.32;;;;;;;27.86;48.54;99413.09;5106469;28;20047;-69
2022/07/05 01:37:47;;;;;;;0.63;0.45;;;;;;;27.85;48.51;99410.66;5083839;28;20046;-69
2022/07/05 01:40:12;;;;;;;0.40;0.40;;;;;;;27.87;48.41;99416.69;5091175;28;20110;-69
2022/07/05 01:42:38;;;;;;;0.55;0.47;;;;;;;27.85;48.60;99417.09;5107731;28;20048;-69
2022/07/05 01:45:04;;;;;;;1.05;0.50;;;;;;;27.85;48.29;99414.28;5086261;28;20035;-69
2022/07/05 01:47:35;;;;;;;0.80;0.50;;;;;;;27.86;48.29;99415.91;5101935;28;20430;-69
2022/07/05 01:50:04;;;;;;;0.85;0.60;;;;;;;27.84;48.47;99409.88;5105930;28;20081;-69
2022/07/05 01:52:31;;;;;;;1.23;0.70;;;;;;;27.84;48.35;99412.69;5100486;28;20059;-69
2022/07/05 01:54:58;;;;;;;0.80;0.60;;;;;;;27.87;48.28;99411.88;5079418;28;20048;-69
2022/07/05 01:57:23;;;;;;;1.63;0.88;;;;;;;27.85;48.27;99417.09;5107450;28;20051;-69
2022/07/05 01:59:49;;;;;;;1.10;0.80;;;;;;;27.85;48.23;99419.91;5098230;28;20043;-69
2022/07/05 02:02:14;;;;;;;1.23;0.73;;;;;;;27.83;48.35;99427.97;5108006;28;20059;-69
2022/07/05 02:04:41;;;;;;;1.42;0.80;;;;;;;27.84;48.17;99423.94;5106645;28;20499;-72
2022/07/05 02:07:08;;;;;;;1.42;0.98;;;;;;;27.85;48.08;99424.72;5107929;28;20494;-72
2022/07/05 02:09:34;;;;;;;0.95;0.65;;;;;;;27.86;48.09;99420.69;5108080;28;20052;-72
2022/07/05 02:12:00;;;;;;;2.30;1.10;;;;;;;27.87;47.98;99428.72;5099724;28;20208;-73
2022/07/05 02:14:25;;;;;;;1.27;0.88;;;;;;;27.85;47.91;99424.72;5104177;28;20046;-72
2022/07/05 02:16:50;;;;;;;1.45;0.90;;;;;;;27.85;48.14;99431.16;5106873;28;20040;-72
2022/07/05 02:19:16;;;;;;;1.17;0.80;;;;;;;27.83;48.20;99430.78;5087878;28;20503;-72
2022/07/05 02:21:42;;;;;;;1.63;0.90;;;;;;;27.84;48.00;99423.13;5077412;28;20128;-73
2022/07/05 02:24:08;;;;;;;1.13;0.75;;;;;;;27.81;48.21;99424.00;5084209;28;20047;-72
2022/07/05 02:26:34;;;;;;;2.15;1.08;;;;;;;27.81;47.99;99421.19;5098998;28;20889;-72
2022/07/05 02:29:01;;;;;;;1.58;0.90;;;;;;;27.82;48.12;99419.97;5103772;28;20082;-72
2022/07/05 02:31:26;;;;;;;1.50;0.90;;;;;;;27.80;47.97;99417.59;5097416;28;20037;-72
2022/07/05 02:33:52;;;;;;;1.35;0.80;;;;;;;27.80;48.00;99422.41;5094462;28;20114;-72
2022/07/05 02:36:18;;;;;;;1.38;0.90;;;;;;;27.81;47.99;99436.03;5092834;28;20040;-72
2022/07/05 02:38:43;;;;;;;1.45;0.82;;;;;;;27.82;47.66;99437.63;5087177;28;20048;-72
2022/07/05 02:41:11;;;;;;;1.40;0.90;;;;;;;27.82;47.93;99443.25;5098083;28;20048;-72
2022/07/05 02:43:38;;;;;;;1.63;0.90;;;;;;;27.81;47.85;99433.22;5089815;28;20516;-72
2022/07/05 02:46:04;;;;;;;1.35;0.90;;;;;;;27.80;47.69;99439.28;5085190;28;20385;-72
2022/07/05 02:48:31;;;;;;;1.20;0.82;;;;;;;27.79;47.68;99446.91;5101204;28;20079;-72
2022/07/05 02:50:56;;;;;;;1.30;0.80;;;;;;;27.80;47.82;99444.91;5097891;28;20035;-72
2022/07/05 02:53:22;;;;;;;1.50;0.80;;;;;;;27.81;47.57;99444.47;5071469;28;20028;-72
2022/07/05 02:55:48;;;;;;;1.15;0.65;;;;;;;27.80;47.77;99450.53;5069115;28;20500;-72
2022/07/05 02:58:13;;;;;;;1.05;0.77;;;;;;;27.78;47.71;99448.09;5088290;28;20040;-72
2022/07/05 03:00:38;;;;;;;1.10;0.70;;;;;;;27.78;47.61;99445.28;5091398;28;20059;-72
2022/07/05 03:03:04;;;;;;;1.00;0.70;;;;;;;27.79;47.60;99444.09;5095145;28;20181;-72
2022/07/05 03:05:29;;;;;;;1.02;0.70;;;;;;;27.82;47.67;99446.06;5081073;28;20264;-72
2022/07/05 03:07:55;;;;;;;0.88;0.70;;;;;;;27.83;47.60;99446.84;5088752;28;20048;-73
2022/07/05 03:10:20;;;;;;;0.75;0.52;;;;;;;27.82;47.38;99440.44;5082132;28;20047;-72
2022/07/05 03:12:46;;;;;;;1.20;0.80;;;;;;;27.81;47.39;99452.91;5101867;28;20040;-69
2022/07/05 03:15:11;;;;;;;0.85;0.68;;;;;;;27.79;47.46;99449.72;5080483;28;20044;-69
2022/07/05 03:17:37;;;;;;;1.42;0.80;;;;;;;27.79;47.56;99451.72;5089556;28;20084;-68
2022/07/05 03:20:03;;;;;;;0.80;0.68;;;;;;;27.79;47.23;99449.72;5087969;28;20040;-68
2022/07/05 03:22:28;;;;;;;0.93;0.60;;;;;;;27.76;47.15;99450.56;5076701;28;20048;-68
2022/07/05 03:24:54;;;;;;;1.23;0.70;;;;;;;27.76;47.10;99455.38;5089882;28;20039;-68
2022/07/05 03:27:19;;;;;;;1.08;0.70;;;;;;;27.79;47.11;99455.34;5104625;28;20044;-68
2022/07/05 03:29:44;;;;;;;0.98;0.57;;;;;;;27.79;47.06;99449.72;5091852;28;20381;-68
2022/07/05 03:32:10;;;;;;;1.08;0.70;;;;;;;27.78;47.15;99459.34;5088120;28;20032;-68
2022/07/05 03:34:35;;;;;;;0.93;0.60;;;;;;;27.78;47.12;99461.38;5094629;28;20086;-68
2022/07/05 03:37:00;;;;;;;0.98;0.57;;;;;;;27.77;47.01;99471.03;5077725;28;20047;-68
2022/07/05 03:39:26;;;;;;;0.80;0.70;;;;;;;27.78;46.98;99469.78;5075073;28;20102;-68
2022/07/05 03:41:52;;;;;;;0.77;0.55;;;;;;;27.77;46.91;99469.00;5096662;28;20044;-68
2022/07/05 03:44:17;;;;;;;0.93;0.70;;;;;;;27.77;46.82;99471.81;5081797;28;20057;-68
2022/07/05 03:46:42;;;;;;;0.95;0.70;;;;;;;27.75;46.88;99471.44;5088120;28;20035;-69
2022/07/05 03:49:08;;;;;;;0.50;0.50;;;;;;;27.77;46.65;99465.41;5090062;28;20516;-68
2022/07/05 03:51:34;;;;;;;0.70;0.60;;;;;;;27.77;46.91;99469.00;5086120;28;20052;-69
2022/07/05 03:54:00;;;;;;;1.25;0.70;;;;;;;27.78;46.85;99481.03;5085404;28;20083;-68
2022/07/05 03:56:26;;;;;;;1.00;0.60;;;;;;;27.78;46.61;99475.41;5062878;28;20044;-68
2022/07/05 03:58:52;;;;;;;1.42;0.80;;;;;;;27.77;46.66;99477.44;5068245;28;20099;-68
2022/07/05 04:01:18;;;;;;;0.70;0.50;;;;;;;27.77;46.76;99474.63;5100404;28;20051;-68
2022/07/05 04:03:43;;;;;;;0.73;0.60;;;;;;;27.77;46.51;99474.63;5076148;28;20039;-71
2022/07/05 04:06:09;;;;;;;1.15;0.73;;;;;;;27.78;46.42;99481.84;5105452;28;20051;-72
2022/07/05 04:08:35;;;;;;;0.43;0.40;;;;;;;27.77;46.65;99497.09;5100391;28;20048;-71
2022/07/05 04:11:01;;;;;;;0.50;0.50;;;;;;;27.76;46.42;99491.91;5070091;28;20102;-71
2022/07/05 04:13:26;;;;;;;3.83;0.50;;;;;;;27.78;46.52;99495.09;5093029;28;20546;-71
2022/07/05 04:15:53;;;;;;;0.52;0.40;;;;;;;27.81;46.31;99492.25;5106226;28;20121;-71
2022/07/05 04:18:18;;;;;;;1.75;0.60;;;;;;;27.83;46.21;99503.06;5087803;28;20047;-72
2022/07/05 04:20:44;;;;;;;0.70;0.50;;;;;;;27.83;46.34;99492.63;5092647;28;20043;-71
2022/07/05 04:23:09;;;;;;;0.60;0.50;;;;;;;27.87;46.25;99499.00;5092262;28;20038;-72
2022/07/05 04:25:35;;;;;;;0.60;0.50;;;;;;;27.88;46.27;99500.59;5088738;28;20048;-71
2022/07/05 04:28:00;;;;;;;0.55;0.52;;;;;;;27.87;46.36;99501.03;5088927;28;20040;-71
2022/07/05 04:30:26;;;;;;;0.30;0.30;;;;;;;27.89;46.19;99504.19;5089364;28;20082;-71
2022/07/05 04:32:52;;;;;;;0.63;0.50;;;;;;;27.90;46.05;99509.41;5087872;28;20551;-72
2022/07/05 04:35:18;;;;;;;0.55;0.50;;;;;;;27.92;46.19;99508.97;5084191;28;20105;-71
2022/07/05 04:37:44;;;;;;;0.70;0.50;;;;;;;27.95;46.05;99508.94;5086514;28;20123;-72
2022/07/05 04:40:11;;;;;;;0.90;0.60;;;;;;;27.98;46.15;99518.53;5087156;28;20412;-72
2022/07/05 04:42:37;;;;;;;0.60;0.50;;;;;;;27.98;46.22;99522.13;5086306;28;20040;-72
2022/07/05 04:45:03;;;;;;;0.63;0.40;;;;;;;28.00;45.92;99527.34;5086773;28;20040;-72
2022/07/05 04:47:29;;;;;;;0.68;0.50;;;;;;;28.03;46.02;99529.31;5087993;28;20044;-69
2022/07/05 04:49:56;;;;;;;0.63;0.50;;;;;;;28.04;45.99;99532.94;5088120;28;20054;-69
2022/07/05 04:52:22;;;;;;;0.45;0.40;;;;;;;28.03;45.93;99520.88;5094671;28;20097;-68
2022/07/05 04:54:48;;;;;;;0.80;0.60;;;;;;;28.06;45.87;99536.91;5090282;28;20143;-69
2022/07/05 04:57:13;;;;;;;0.60;0.47;;;;;;;28.07;46.07;99532.88;5099166;28;20028;-68
2022/07/05 04:59:39;;;;;;;3.00;0.57;;;;;;;28.13;46.31;99531.19;5063401;28;20610;-70
2022/07/05 05:02:04;;;;;;;0.57;0.43;;;;;;;28.07;45.99;99530.06;5101368;28;20043;-70
2022/07/05 05:04:30;;;;;;;13.25;1.10;;;;;;;28.03;46.50;99528.53;5072687;28;20044;-69
2022/07/05 05:06:55;;;;;;;6.82;0.90;;;;;;;27.97;46.67;99533.81;5098173;28;20042;-69
2022/07/05 05:09:21;;;;;;;15.90;1.50;;;;;;;27.99;46.48;99531.38;5088762;28;20403;-69
2022/07/05 05:11:47;;;;;;;16.33;1.40;;;;;;;28.04;46.61;99544.19;5070944;28;20051;-69
2022/07/05 05:14:12;;;;;;;19.73;1.23;;;;;;;28.05;46.42;99542.94;5088525;28;20047;-67
2022/07/05 05:16:38;;;;;;;13.45;1.00;;;;;;;28.05;46.28;99543.75;5089400;28;20062;-69
2022/07/05 05:19:03;;;;;;;8.00;1.25;;;;;;;28.05;46.47;99542.94;5088583;28;20048;-69
2022/07/05 05:21:29;;;;;;;14.90;1.13;;;;;;;28.06;46.31;99547.34;5088684;28;20504;-69
2022/07/05 05:23:54;;;;;;;10.60;1.10;;;;;;;28.08;46.31;99542.13;5088670;28;20181;-69
2022/07/05 05:26:19;;;;;;;14.13;1.25;;;;;;;28.10;46.38;99548.13;5081195;28;20047;-71
2022/07/05 05:28:45;;;;;;;5.68;0.88;;;;;;;28.11;46.22;99555.34;5088173;28;20052;-71
2022/07/05 05:31:10;;;;;;;10.23;1.40;;;;;;;28.12;46.32;99556.91;5088993;28;20040;-71
2022/07/05 05:33:36;;;;;;;13.95;1.10;;;;;;;28.12;46.32;99548.47;5088652;28;20416;-71
2022/07/05 05:36:02;;;;;;;18.60;1.50;;;;;;;28.12;46.09;99551.31;5088579;28;20040;-71
2022/07/05 05:38:28;;;;;;;7.25;0.98;;;;;;;28.13;46.16;99548.06;5088520;28;20036;-71
2022/07/05 05:40:53;;;;;;;7.20;1.00;;;;;;;28.13;46.32;99547.25;5088287;28;20044;-71
2022/07/05 05:43:18;;;;;;;7.28;0.93;;;;;;;28.15;46.16;99553.28;5088991;28;20044;-69
2022/07/05 05:45:44;;;;;;;7.30;0.73;;;;;;;28.17;46.10;99553.66;5087346;28;20059;-70
2022/07/05 05:48:09;;;;;;;2.30;0.68;;;;;;;28.17;46.01;99553.66;5088864;28;20039;-69
2022/07/05 05:50:40;;;;;;;3.60;0.80;;;;;;;28.17;45.99;99545.22;5086647;28;20504;-69
2022/07/05 05:53:06;;;;;;;7.90;0.90;;;;;;;28.19;45.84;99546.38;5084860;28;20161;-69
2022/07/05 05:55:32;;;;;;;1.25;0.60;;;;;;;28.20;45.68;99544.34;5079679;28;20334;-70
2022/07/05 05:58:36;;;;;;;3.50;0.88;;;;;;;28.20;45.91;99550.78;5088278;28;20117;-69
2022/07/05 06:01:01;;;;;;;2.80;0.60;;;;;;;28.19;45.74;99551.19;4985676;28;20056;-69
2022/07/05 06:03:27;;;;;;;3.42;0.70;;;;;;;28.17;45.92;99556.47;4976530;28;20069;-71
2022/07/05 06:05:53;;;;;;;4.90;1.00;;;;;;;28.03;46.97;99553.84;4986229;28;20105;-71
2022/07/05 06:08:19;;;;;;;1.95;0.60;;;;;;;27.87;47.54;99554.44;4986710;28;20376;-71
2022/07/05 06:10:45;;;;;;;5.35;0.70;;;;;;;27.70;48.27;99548.59;4986420;28;20051;-71
2022/07/05 06:13:13;;;;;;;1.90;0.80;;;;;;;27.66;48.49;99552.63;4986267;28;20046;-71
2022/07/05 06:15:39;;;;;;;1.88;0.73;;;;;;;27.59;48.73;99550.69;4986281;28;20061;-71
2022/07/05 06:18:07;;;;;;;0.80;0.60;;;;;;;27.55;48.70;99551.94;4986436;28;20096;-71
2022/07/05 06:20:35;;;;;;;1.30;0.77;;;;;;;27.52;48.91;99552.78;4985820;28;20423;-71
2022/07/05 06:23:01;;;;;;;2.08;0.60;;;;;;;27.49;48.78;99548.78;4986020;28;20137;-71
2022/07/05 06:25:28;;;;;;;1.17;0.55;;;;;;;27.55;48.66;99557.56;4975879;28;20050;-71
2022/07/05 06:27:56;;;;;;;2.28;0.70;;;;;;;27.48;48.84;99552.81;4985723;28;20510;-71
2022/07/05 06:30:24;;;;;;;3.30;0.68;;;;;;;27.50;48.90;99555.19;4986021;28;20042;-71
2022/07/05 06:32:50;;;;;;;2.25;0.70;;;;;;;27.50;48.54;99558.00;5079445;28;20487;-71
2022/07/05 06:35:16;;;;;;;1.50;0.60;;;;;;;27.48;48.71;99561.25;5085932;28;20059;-71
2022/07/05 06:37:41;;;;;;;1.25;0.60;;;;;;;27.46;48.75;99560.88;5087765;28;20040;-71
2022/07/05 06:40:08;;;;;;;1.55;0.60;;;;;;;27.45;48.61;99558.50;5087420;28;20051;-71
2022/07/05 06:42:34;;;;;;;0.90;0.60;;;;;;;27.46;48.56;99557.25;5086546;28;20071;-71
2022/07/05 06:44:59;;;;;;;1.13;0.50;;;;;;;27.48;48.31;99560.44;5083775;28;20128;-71
2022/07/05 06:47:24;;;;;;;1.85;0.70;;;;;;;27.51;47.54;99556.81;5083226;28;20044;-71
2022/07/05 06:49:50;;;;;;;4.15;0.93;;;;;;;27.48;46.86;99561.25;5073399;28;20048;-71
2022/07/05 06:52:15;;;;;;;5.78;1.45;;;;;;;27.40;46.48;99559.72;5074939;28;20039;-70
2022/07/05 06:54:41;;;;;;;3.45;1.10;;;;;;;27.33;46.11;99552.16;5083127;28;20036;-70
2022/07/05 06:57:06;;;;;;;5.53;1.13;;;;;;;27.32;46.18;99549.78;5077631;28;20447;-70
2022/07/05 06:59:31;;;;;;;4.07;1.00;;;;;;;27.32;45.97;99547.75;5079593;28;20089;-70
2022/07/05 07:01:57;;;;;;;2.03;0.90;;;;;;;27.33;45.94;99546.53;5085888;28;20048;-70
2022/07/05 07:04:22;;;;;;;4.03;1.00;;;;;;;27.35;46.34;99551.75;5077949;28;20524;-70
2022/07/05 07:06:48;;;;;;;3.50;1.02;;;;;;;27.28;45.50;99549.78;5086441;28;20138;-70
2022/07/05 07:09:20;;;;;;;4.93;1.17;;;;;;;27.24;47.21;99548.25;5079001;28;20412;-70
2022/07/05 07:11:46;;;;;;;;;;;;;;;27.31;46.36;99554.59;5085170;28;20096;-69
2022/07/05 07:14:12;;;;;;;2.63;1.00;;;;;;;27.33;45.81;99546.53;5077918;28;19916;-69
2022/07/05 07:16:37;;;;;;;3.95;1.15;;;;;;;27.18;46.76;99549.91;5086619;28;20089;-68
2022/07/05 07:19:02;;;;;;;2.55;1.00;;;;;;;27.18;46.79;99549.91;5076212;28;20074;-69
2022/07/05 07:21:28;;;;;;;2.85;1.00;;;;;;;27.28;46.23;99551.81;5075838;28;20131;-68
2022/07/05 07:23:53;;;;;;;2.80;1.10;;;;;;;27.33;45.22;99554.97;5090210;28;20169;-68
2022/07/05 07:26:20;;;;;;;3.55;1.33;;;;;;;27.25;45.44;99547.84;5090571;28;20444;-68
2022/07/05 07:28:45;;;;;;;3.50;1.20;;;;;;;27.31;45.83;99548.19;5071082;28;20044;-71
2022/07/05 07:31:11;;;;;;;4.63;1.23;;;;;;;27.38;45.33;99548.13;5082705;28;20043;-71
2022/07/05 07:33:36;;;;;;;1.92;0.88;;;;;;;27.44;44.43;99546.44;5072854;28;20469;-71
2022/07/05 07:36:02;;;;;;;3.60;1.00;;;;;;;27.31;45.37;99540.56;5080917;28;20072;-70
2022/07/05 07:38:28;;;;;;;3.15;0.90;;;;;;;27.35;45.37;99546.13;5064031;28;20043;-71
2022/07/05 07:40:53;;;;;;;4.20;1.15;;;;;;;27.39;45.43;99544.88;5084364;28;20048;-70
2022/07/05 07:43:18;;;;;;;2.33;1.00;;;;;;;27.32;44.37;99544.97;5080973;28;20036;-70
2022/07/05 07:45:44;;;;;;;2.35;0.95;;;;;;;27.27;45.73;99548.22;5083559;28;20032;-68
2022/07/05 07:48:09;;;;;;;3.13;0.90;;;;;;;27.34;45.40;99544.53;5082362;28;20053;-68
2022/07/05 07:50:35;;;;;;;8.10;1.15;;;;;;;27.36;44.03;99542.09;5081126;28;20469;-67
2022/07/05 07:53:00;;;;;;;3.83;0.90;;;;;;;27.29;45.39;99539.34;5058420;28;20044;-68
2022/07/05 07:55:26;;;;;;;2.40;0.85;;;;;;;27.36;45.13;99542.91;5081501;28;20108;-68
2022/07/05 07:57:52;;;;;;;4.78;1.00;;;;;;;27.44;43.53;99535.22;5075584;28;20048;-67
2022/07/05 08:00:18;;;;;;;2.13;0.80;;;;;;;27.38;44.53;99540.47;5083536;28;20047;-68
2022/07/05 08:02:43;;;;;;;2.78;1.23;;;;;;;27.41;44.69;99536.81;5066916;28;20416;-68
2022/07/05 08:05:11;;;;;;;2.40;0.80;;;;;;;27.45;43.50;99542.44;5083197;28;20051;-68
2022/07/05 08:07:37;;;;;;;1.75;0.90;;;;;;;27.34;44.41;99531.28;5071463;28;20097;-68
2022/07/05 08:10:04;;;;;;;3.58;0.82;;;;;;;27.37;44.71;99533.28;5080997;28;20044;-68
2022/07/05 08:12:29;;;;;;;1.10;0.70;;;;;;;27.49;44.18;99525.50;5079267;28;20056;-67
2022/07/05 08:14:55;;;;;;;3.72;0.82;;;;;;;27.39;43.38;99527.22;5087128;28;20044;-69
2022/07/05 08:17:20;;;;;;;3.78;0.95;;;;;;;27.35;44.23;99521.63;5078043;28;20113;-69
2022/07/05 08:22:31;;;;;;;3.10;1.02;;;;;;;27.41;43.79;99519.19;5073920;28;20108;-69
2022/07/05 08:24:56;;;;;;;2.33;0.93;;;;;;;27.43;43.72;99517.56;5082125;28;20044;-69
2022/07/05 08:27:22;;;;;;;3.45;1.13;;;;;;;27.45;42.51;99524.78;5080476;28;20561;-69
2022/07/05 08:29:47;;;;;;;1.83;0.77;;;;;;;27.39;44.23;99518.81;5071804;28;20451;-70
2022/07/05 08:32:13;;;;;;;3.78;1.10;;;;;;;27.37;44.12;99516.41;5074911;28;20051;-69
2022/07/05 08:34:41;;;;;;;2.92;1.10;;;;;;;27.46;43.29;99515.13;5071666;28;20036;-69
2022/07/05 08:37:07;;;;;;;1.55;0.90;;;;;;;27.39;43.92;99510.38;5070903;28;20041;-69
2022/07/05 08:39:33;;;;;;;1.70;0.80;;;;;;;27.35;43.72;99518.81;5074221;28;20414;-69
2022/07/05 08:42:00;;;;;;;1.40;0.93;;;;;;;27.38;43.19;99503.16;5079006;28;20093;-68
2022/07/05 08:44:28;;;;;;;2.45;0.88;;;;;;;27.40;42.24;99501.53;5084465;28;20110;-68
2022/07/05 08:46:55;;;;;;;1.45;0.70;;;;;;;27.31;43.57;99498.44;5077190;28;20047;-69
2022/07/05 08:49:26;;;;;;;1.52;0.90;;;;;;;27.36;43.59;99497.97;5086428;28;20039;-68
2022/07/05 08:51:53;;;;;;;2.83;0.73;;;;;;;27.42;43.70;99490.66;5082282;28;20043;-71
2022/07/05 08:54:19;;;;;;;2.50;0.73;;;;;;;27.35;42.34;99496.34;5083964;28;20763;-73
2022/07/05 08:56:45;;;;;;;1.90;0.80;;;;;;;27.31;44.46;99501.22;5074362;28;20130;-72
2022/07/05 08:59:10;;;;;;;2.85;0.77;;;;;;;27.39;44.70;99496.34;5070276;28;20056;-71
2022/07/05 09:01:36;;;;;;;1.83;0.68;;;;;;;27.44;43.16;99493.06;5055551;28;20056;-72
2022/07/05 09:04:07;;;;;;;1.55;0.50;;;;;;;27.40;44.69;99495.13;5059493;28;20059;-72
2022/07/05 09:06:37;;;;;;;6.05;0.80;;;;;;;27.42;45.18;99490.66;5063739;28;20132;-72
2022/07/05 09:09:03;;;;;;;1.83;0.80;;;;;;;27.48;44.71;99493.81;5048949;28;20047;-72
2022/07/05 09:11:36;;;;;;;2.67;0.85;;;;;;;27.46;43.81;99493.44;5059269;28;20564;-72
2022/07/05 09:14:03;;;;;;;2.33;0.93;;;;;;;27.45;44.96;99497.47;5064857;28;20111;-73
2022/07/05 09:16:30;;;;;;;1.38;0.70;;;;;;;27.37;45.19;99493.94;5059467;28;20047;-73
2022/07/05 09:18:56;;;;;;;1.17;0.75;;;;;;;27.32;44.96;99485.97;5064279;28;20055;-73
2022/07/05 09:21:23;;;;;;;3.03;0.88;;;;;;;27.40;44.99;99493.09;5059968;28;20123;-73
2022/07/05 09:24:13;;;;;;;0.93;0.60;;;;;;;27.38;44.02;99487.13;5068765;28;20049;-73
2022/07/05 09:26:48;;;;;;;1.38;0.60;;;;;;;27.40;45.76;99489.50;5062978;28;20052;-70
2022/07/05 09:29:16;;;;;;;1.83;0.82;;;;;;;27.40;45.56;99490.28;5066254;28;21192;-70
2022/07/05 09:31:44;;;;;;;1.48;0.65;;;;;;;27.41;45.62;99486.25;5059163;28;20084;-70
2022/07/05 09:34:14;;;;;;;1.15;0.77;;;;;;;27.38;45.35;99486.31;5059590;28;20052;-70
2022/07/05 09:36:51;;;;;;;1.25;0.75;;;;;;;27.34;46.50;99479.94;5065413;28;20714;-69
2022/07/05 09:39:38;;;;;;;2.78;0.73;;;;;;;27.28;46.16;99485.19;5067653;28;20051;-71
2022/07/05 09:42:23;;;;;;;1.45;0.50;;;;;;;27.32;45.04;99485.19;5063220;28;20047;-69
2022/07/05 09:44:50;;;;;;;2.00;0.65;;;;;;;27.31;46.56;99490.00;5075143;28;20056;-69
2022/07/05 09:47:18;;;;;;;2.88;0.80;;;;;;;27.31;46.55;99478.75;5079470;28;20124;-69
2022/07/05 09:49:47;;;;;;;2.92;0.60;;;;;;;27.32;46.05;99485.97;5076624;28;20048;-68
2022/07/05 09:52:26;;;;;;;2.03;0.70;;;;;;;27.34;44.88;99477.91;5070761;28;20056;-69
2022/07/05 09:55:05;;;;;;;3.15;0.90;;;;;;;27.30;46.47;99471.56;5065821;28;20657;-68
2022/07/05 09:57:31;;;;;;;5.22;0.80;;;;;;;27.35;46.73;99476.69;5055924;28;20041;-70
2022/07/05 10:00:07;;;;;;;5.10;0.80;;;;;;;27.34;46.57;99468.69;5069440;28;20044;-69
2022/07/05 10:02:40;;;;;;;6.57;1.40;;;;;;;27.36;45.63;99467.06;5068957;28;20052;-70
2022/07/05 10:05:14;;;;;;;1.63;0.70;;;;;;;27.36;47.58;99472.69;5068194;28;20059;-70
2022/07/05 10:07:40;;;;;;;2.67;0.73;;;;;;;27.30;47.34;99477.19;5046507;28;20078;-70
2022/07/05 10:10:08;;;;;;;4.10;0.80;;;;;;;27.32;47.18;99473.94;5074769;28;20097;-70
2022/07/05 10:12:36;;;;;;;2.53;0.77;;;;;;;27.32;45.72;99477.53;5088119;28;20067;-70
2022/07/05 10:15:02;;;;;;;6.82;0.80;;;;;;;27.30;47.32;99470.75;5098193;28;20109;-70
2022/07/05 10:17:30;;;;;;;1.63;0.70;;;;;;;27.31;47.32;99469.53;5094043;28;20043;-69
2022/07/05 10:19:58;;;;;;;2.22;0.80;;;;;;;27.31;47.00;99464.72;5096054;28;20046;-70
2022/07/05 10:22:24;;;;;;;2.00;0.75;;;;;;;27.29;45.60;99449.47;5101051;28;20104;-70
2022/07/05 10:24:49;;;;;;;3.25;0.80;;;;;;;27.32;47.58;99448.66;5095474;28;20659;-69
2022/07/05 10:27:16;;;;;;;1.60;0.60;;;;;;;27.35;47.25;99459.03;5101044;28;20062;-69
2022/07/05 10:29:43;;;;;;;1.40;0.68;;;;;;;27.36;47.00;99455.84;5071496;28;20040;-67
2022/07/05 10:32:10;;;;;;;1.52;0.68;;;;;;;27.34;46.16;99452.63;5087866;28;20474;-68
2022/07/05 10:34:37;;;;;;;1.73;0.60;;;;;;;27.32;47.19;99454.28;5085418;28;20039;-68
2022/07/05 10:37:04;;;;;;;2.55;0.75;;;;;;;27.32;46.70;99454.28;5094038;28;20044;-68
2022/07/05 10:39:30;;;;;;;1.40;0.60;;;;;;;27.30;46.14;99440.66;5085966;28;20039;-72
2022/07/05 10:41:57;;;;;;;1.50;0.70;;;;;;;27.31;46.72;99436.63;5098515;28;20043;-72
2022/07/05 10:44:33;;;;;;;1.58;0.60;;;;;;;27.23;47.21;99446.34;5103657;28;21092;-72
2022/07/05 10:47:10;;;;;;;0.80;0.50;;;;;;;27.25;47.01;99440.31;5109336;28;20046;-72
2022/07/05 10:49:36;;;;;;;1.60;0.63;;;;;;;27.26;45.85;99433.47;5101235;28;20526;-71
2022/07/05 10:52:02;;;;;;;1.75;0.70;;;;;;;27.26;47.10;99422.25;5104815;28;20043;-72
2022/07/05 10:54:28;;;;;;;1.17;0.70;;;;;;;27.25;47.09;99431.88;5096739;28;20040;-72
2022/07/05 10:57:22;;;;;;;0.60;0.60;;;;;;;27.25;47.07;99438.31;5100379;28;20055;-72
2022/07/05 11:00:10;;;;;;;1.05;0.77;;;;;;;27.24;46.02;99438.72;5091498;28;20044;-72
2022/07/05 11:02:39;;;;;;;1.13;0.70;;;;;;;27.27;47.38;99430.25;5097076;28;20548;-72
2022/07/05 11:05:05;;;;;;;1.40;0.55;;;;;;;27.26;47.10;99411.81;5107809;28;20051;-69
2022/07/05 11:07:59;;;;;;;1.45;0.60;;;;;;;27.34;47.06;99438.59;5099500;28;20032;-68
2022/07/05 11:10:24;;;;;;;1.95;0.70;;;;;;;27.36;46.54;99429.75;5094101;28;20123;-68
2022/07/05 11:12:50;;;;;;;3.83;0.60;;;;;;;27.28;47.21;99417.00;5109841;28;21497;-69
2022/07/05 11:15:16;;;;;;;0.75;0.50;;;;;;;27.27;47.57;99426.66;5108905;28;20035;-72
2022/07/05 11:17:42;;;;;;;1.00;0.57;;;;;;;27.32;46.59;99426.19;5093957;28;20047;-70
2022/07/05 11:20:11;;;;;;;1.65;0.70;;;;;;;27.33;47.42;99414.53;5089464;28;20063;-70
2022/07/05 11:22:39;;;;;;;0.68;0.60;;;;;;;27.33;47.87;99406.09;5102080;28;20055;-73
2022/07/05 11:25:07;;;;;;;1.52;0.80;;;;;;;27.32;47.54;99410.13;5096214;28;20055;-73
2022/07/05 11:27:34;;;;;;;2.17;1.00;;;;;;;27.36;45.86;99415.69;5102463;28;20039;-73
2022/07/05 11:29:59;;;;;;;1.38;0.80;;;;;;;27.36;47.75;99402.47;5097299;28;20079;-70
2022/07/05 11:32:27;;;;;;;1.20;0.70;;;;;;;27.43;47.53;99399.56;5100626;28;20090;-69
2022/07/05 11:34:55;;;;;;;1.50;0.90;;;;;;;27.39;46.29;99401.63;5094857;28;20051;-69
2022/07/05 11:37:26;;;;;;;4.45;0.90;;;;;;;27.39;47.56;99404.44;5105642;28;20040;-70
2022/07/05 11:40:10;;;;;;;2.75;1.00;;;;;;;27.42;48.10;99405.59;5096655;28;20435;-70